Lusaka, Zambia
Current Conditions -  °F | °C
As of 6:00 AM on Tuesday 21 Oct 2014 (Local Time) from FLKK Reporting Station
Clear Clear  
Wind Chill: 15°   Ceiling: Unl
Heat Index: 15°   Visibility: 6mi
Dew Point:   Wind: 2mph
Humidity: 63%   Direction: 130°SE
Pressure: 30.15"   Gusts: NA
Location:  15.42°S, 28.29°E
Report Text: FLKK 210400Z 13002KT CAVOK 15/08 Q1021
Loading
Personal Weather Stations






























Interactive Weather Map
Tropical Storm Tracking
New forecast layout! Learn more

10-Day Weather Forecast

Advertisements
Track Severe Weather on mobile